Felix-Klein-Gymnasium, Gttingen, 150m NN
Wetterdaten: aktuell Sonntag, 22.07.2018 04:30
Datum Zeit Temp. A. Feuchte A. Luftdruck Regen Wind Richtung Richtung Sonnenschein Taupunkt Windchill Windben
22.07.2018 04:30 18,5 C 80 % 1009,9 hPa 0,0 mm 0,3 km/h (0 Bft) NO 47 0 min 15,0 C 18,5 C 6,4 km/h (2 Bft)
22.07.2018 04:15 18,6 C 80 % 1009,9 hPa 0,0 mm 0,1 km/h (0 Bft) N-NO 32 0 min 15,1 C 18,6 C 6,4 km/h (2 Bft)
22.07.2018 04:00 18,7 C 80 % 1010,0 hPa 0,0 mm 0,7 km/h (0 Bft) NO 45 0 min 15,2 C 18,7 C 6,4 km/h (2 Bft)
22.07.2018 03:45 18,8 C 79 % 1009,9 hPa 0,0 mm 2,0 km/h (1 Bft) N-NO 22 0 min 15,1 C 18,8 C 11,3 km/h (2 Bft)
22.07.2018 03:30 18,9 C 79 % 1009,9 hPa 0,0 mm 2,5 km/h (1 Bft) N-NO 15 0 min 15,2 C 18,9 C 12,9 km/h (3 Bft)
22.07.2018 03:15 18,9 C 78 % 1009,8 hPa 0,0 mm 3,0 km/h (1 Bft) N 7 0 min 15,0 C 18,9 C 11,3 km/h (2 Bft)
22.07.2018 03:00 19,1 C 77 % 1009,9 hPa 0,0 mm 4,7 km/h (1 Bft) N-NO 15 0 min 15,0 C 19,1 C 14,5 km/h (3 Bft)
22.07.2018 02:45 19,4 C 75 % 1009,9 hPa 0,0 mm 4,3 km/h (1 Bft) NO 42 0 min 14,8 C 19,4 C 16,1 km/h (3 Bft)
22.07.2018 02:30 19,8 C 72 % 1009,9 hPa 0,0 mm 2,1 km/h (1 Bft) N-NO 32 0 min 14,6 C 19,8 C 11,3 km/h (2 Bft)
22.07.2018 02:15 20,1 C 71 % 1009,9 hPa 0,0 mm 2,5 km/h (1 Bft) NO 55 0 min 14,7 C 20,1 C 11,3 km/h (2 Bft)
22.07.2018 02:00 20,3 C 70 % 1009,9 hPa 0,0 mm 5,0 km/h (1 Bft) N-NO 24 0 min 14,6 C 20,3 C 12,9 km/h (3 Bft)
22.07.2018 01:45 20,4 C 69 % 1009,7 hPa 0,0 mm 6,0 km/h (2 Bft) N-NO 13 0 min 14,5 C 20,4 C 14,5 km/h (3 Bft)
22.07.2018 01:30 20,6 C 68 % 1009,7 hPa 0,0 mm 4,1 km/h (1 Bft) N-NO 24 0 min 14,5 C 20,6 C 14,5 km/h (3 Bft)
22.07.2018 01:15 20,6 C 68 % 1009,6 hPa 0,0 mm 3,1 km/h (1 Bft) NO 39 0 min 14,5 C 20,6 C 11,3 km/h (2 Bft)
22.07.2018 01:00 20,6 C 67 % 1009,5 hPa 0,0 mm 2,8 km/h (1 Bft) N-NO 18 0 min 14,3 C 20,6 C 9,7 km/h (2 Bft)
22.07.2018 00:45 20,8 C 66 % 1009,3 hPa 0,0 mm 3,0 km/h (1 Bft) N-NO 26 0 min 14,2 C 20,8 C 11,3 km/h (2 Bft)
22.07.2018 00:30 21,0 C 65 % 1009,2 hPa 0,0 mm 3,3 km/h (1 Bft) NO 41 0 min 14,2 C 21,0 C 11,3 km/h (2 Bft)
22.07.2018 00:15 21,1 C 65 % 1009,1 hPa 0,0 mm 2,4 km/h (1 Bft) N-NO 14 0 min 14,3 C 21,1 C 9,7 km/h (2 Bft)
22.07.2018 00:00 21,0 C 65 % 1009,1 hPa 0,0 mm 1,1 km/h (1 Bft) N-NO 13 0 min 14,2 C 21,0 C 8,0 km/h (2 Bft)
21.07.2018 23:45 21,1 C 65 % 1009,0 hPa 0,0 mm 0,0 km/h (0 Bft) NO 42 0 min 14,3 C 21,1 C 1,6 km/h (1 Bft)
21.07.2018 23:30 21,2 C 64 % 1009,0 hPa 0,0 mm 0,0 km/h (0 Bft) NO 42 0 min 14,1 C 21,2 C 3,2 km/h (1 Bft)
21.07.2018 23:15 21,5 C 64 % 1009,0 hPa 0,0 mm 0,0 km/h (0 Bft) NO 42 0 min 14,4 C 21,5 C 1,6 km/h (1 Bft)
21.07.2018 23:00 21,7 C 63 % 1009,1 hPa 0,0 mm 0,1 km/h (0 Bft) NO 47 0 min 14,3 C 21,7 C 4,8 km/h (1 Bft)
21.07.2018 22:45 21,9 C 62 % 1009,0 hPa 0,0 mm 0,9 km/h (0 Bft) N-NO 29 0 min 14,3 C 21,9 C 8,0 km/h (2 Bft)
21.07.2018 22:30 22,1 C 61 % 1009,0 hPa 0,0 mm 0,2 km/h (0 Bft) N-NO 33 0 min 14,2 C 22,1 C 4,8 km/h (1 Bft)
21.07.2018 22:15 22,4 C 60 % 1008,9 hPa 0,0 mm 0,1 km/h (0 Bft) NO 45 0 min 14,2 C 22,4 C 4,8 km/h (1 Bft)
21.07.2018 22:00 22,9 C 58 % 1008,8 hPa 0,0 mm 0,0 km/h (0 Bft) NO 47 0 min 14,2 C 22,9 C 0,0 km/h (0 Bft)
21.07.2018 21:45 23,2 C 57 % 1008,7 hPa 0,0 mm 0,1 km/h (0 Bft) NO 46 0 min 14,2 C 23,2 C 4,8 km/h (1 Bft)
21.07.2018 21:30 23,7 C 55 % 1008,5 hPa 0,0 mm 2,0 km/h (1 Bft) NO 47 0 min 14,1 C 23,7 C 9,7 km/h (2 Bft)
21.07.2018 21:15 24,6 C 53 % 1008,2 hPa 0,0 mm 0,4 km/h (0 Bft) NO 36 0 min 14,4 C 24,6 C 8,0 km/h (2 Bft)
21.07.2018 21:00 24,8 C 51 % 1008,1 hPa 0,0 mm 0,6 km/h (0 Bft) N-NO 22 0 min 14,0 C 24,8 C 8,0 km/h (2 Bft)
21.07.2018 20:45 25,2 C 50 % 1008,1 hPa 0,0 mm 0,3 km/h (0 Bft) N-NO 25 0 min 14,0 C 25,2 C 4,8 km/h (1 Bft)
21.07.2018 20:30 25,3 C 49 % 1008,0 hPa 0,0 mm 1,2 km/h (1 Bft) NO 36 0 min 13,8 C 25,3 C 12,9 km/h (3 Bft)
21.07.2018 20:15 25,4 C 50 % 1008,0 hPa 0,0 mm 1,5 km/h (1 Bft) N-NO 30 0 min 14,2 C 25,4 C 8,0 km/h (2 Bft)
21.07.2018 20:00 25,6 C 50 % 1008,0 hPa 0,0 mm 2,6 km/h (1 Bft) N-NO 22 0 min 14,4 C 25,6 C 11,3 km/h (2 Bft)
21.07.2018 19:45 25,6 C 51 % 1008,0 hPa 0,0 mm 2,4 km/h (1 Bft) NO 41 0 min 14,7 C 25,6 C 11,3 km/h (2 Bft)
21.07.2018 19:30 25,8 C 51 % 1008,0 hPa 0,0 mm 2,5 km/h (1 Bft) N 359 15 min 14,9 C 25,8 C 12,9 km/h (3 Bft)
21.07.2018 19:15 25,9 C 51 % 1008,0 hPa 0,0 mm 3,7 km/h (1 Bft) N-NO 17 15 min 15,0 C 25,9 C 14,5 km/h (3 Bft)
21.07.2018 19:00 26,1 C 50 % 1008,0 hPa 0,0 mm 3,9 km/h (1 Bft) NO 53 15 min 14,8 C 26,1 C 19,3 km/h (3 Bft)
21.07.2018 18:45 25,8 C 52 % 1008,2 hPa 0,0 mm 5,6 km/h (1 Bft) NO 54 15 min 15,2 C 25,8 C 17,7 km/h (3 Bft)
21.07.2018 18:30 25,8 C 51 % 1008,2 hPa 0,0 mm 5,6 km/h (1 Bft) N-NO 16 15 min 14,9 C 25,8 C 16,1 km/h (3 Bft)
21.07.2018 18:15 25,6 C 54 % 1008,4 hPa 0,0 mm 5,8 km/h (2 Bft) W-NW 303 15 min 15,6 C 25,6 C 16,1 km/h (3 Bft)
21.07.2018 18:00 25,5 C 53 % 1008,4 hPa 0,0 mm 5,5 km/h (1 Bft) N 352 15 min 15,2 C 25,5 C 19,3 km/h (3 Bft)
21.07.2018 17:45 25,2 C 54 % 1008,4 hPa 0,0 mm 8,4 km/h (2 Bft) N 359 15 min 15,2 C 25,2 C 20,9 km/h (4 Bft)
21.07.2018 17:30 25,3 C 52 % 1008,4 hPa 0,0 mm 9,4 km/h (2 Bft) NW 308 0 min 14,7 C 25,3 C 25,7 km/h (4 Bft)
21.07.2018 17:15 26,0 C 48 % 1008,3 hPa 0,0 mm 7,1 km/h (2 Bft) N-NW 329 0 min 14,1 C 26,0 C 22,5 km/h (4 Bft)
21.07.2018 17:00 26,6 C 43 % 1008,4 hPa 0,0 mm 4,2 km/h (1 Bft) N 2 0 min 13,0 C 26,6 C 14,5 km/h (3 Bft)
21.07.2018 16:45 27,1 C 41 % 1008,4 hPa 0,0 mm 4,1 km/h (1 Bft) N-NO 30 0 min 12,7 C 27,1 C 20,9 km/h (4 Bft)
21.07.2018 16:30 27,3 C 41 % 1008,2 hPa 0,0 mm 6,6 km/h (2 Bft) N 2 0 min 12,9 C 27,3 C 19,3 km/h (3 Bft)
21.07.2018 16:15 27,1 C 41 % 1008,3 hPa 0,0 mm 7,4 km/h (2 Bft) N-NO 26 15 min 12,7 C 27,1 C 20,9 km/h (4 Bft)
21.07.2018 16:00 27,3 C 40 % 1008,3 hPa 0,0 mm 3,6 km/h (1 Bft) NO 35 15 min 12,5 C 27,3 C 16,1 km/h (3 Bft)
21.07.2018 15:45 27,1 C 41 % 1008,4 hPa 0,0 mm 5,5 km/h (1 Bft) N 360 15 min 12,7 C 27,1 C 17,7 km/h (3 Bft)
21.07.2018 15:30 26,6 C 42 % 1008,3 hPa 0,0 mm 7,3 km/h (2 Bft) N-NW 342 15 min 12,6 C 26,6 C 20,9 km/h (4 Bft)
21.07.2018 15:15 26,3 C 43 % 1008,3 hPa 0,0 mm 9,1 km/h (2 Bft) N 3 15 min 12,7 C 26,3 C 24,1 km/h (4 Bft)
21.07.2018 15:00 26,6 C 42 % 1008,3 hPa 0,0 mm 9,3 km/h (2 Bft) N-NW 348 15 min 12,6 C 26,6 C 24,1 km/h (4 Bft)
21.07.2018 14:45 26,8 C 40 % 1008,2 hPa 0,0 mm 7,8 km/h (2 Bft) N-NW 329 0 min 12,1 C 26,8 C 22,5 km/h (4 Bft)
21.07.2018 14:30 26,9 C 38 % 1008,2 hPa 0,0 mm 7,6 km/h (2 Bft) N 349 0 min 11,4 C 26,9 C 19,3 km/h (3 Bft)
21.07.2018 14:15 27,2 C 38 % 1008,0 hPa 0,0 mm 6,4 km/h (2 Bft) N-NO 30 0 min 11,6 C 27,2 C 22,5 km/h (4 Bft)
21.07.2018 14:00 27,2 C 39 % 1007,9 hPa 0,0 mm 6,1 km/h (2 Bft) N-NO 33 15 min 12,0 C 27,2 C 17,7 km/h (3 Bft)
21.07.2018 13:45 26,8 C 39 % 1007,9 hPa 0,0 mm 6,1 km/h (2 Bft) N-NW 340 0 min 11,7 C 26,8 C 16,1 km/h (3 Bft)
21.07.2018 13:30 26,5 C 39 % 1007,9 hPa 0,0 mm 6,8 km/h (2 Bft) N 351 0 min 11,4 C 26,5 C 19,3 km/h (3 Bft)
21.07.2018 13:15 26,6 C 39 % 1007,9 hPa 0,0 mm 5,9 km/h (2 Bft) NW 317 0 min 11,5 C 26,6 C 19,3 km/h (3 Bft)
21.07.2018 13:00 26,6 C 39 % 1007,9 hPa 0,0 mm 7,1 km/h (2 Bft) NO 40 0 min 11,5 C 26,6 C 17,7 km/h (3 Bft)
21.07.2018 12:45 26,3 C 38 % 1007,9 hPa 0,0 mm 9,6 km/h (2 Bft) N 354 0 min 10,8 C 26,3 C 20,9 km/h (4 Bft)
21.07.2018 12:30 26,7 C 37 % 1007,9 hPa 0,0 mm 6,7 km/h (2 Bft) N-NW 346 0 min 10,8 C 26,7 C 19,3 km/h (3 Bft)
21.07.2018 12:15 26,6 C 37 % 1007,8 hPa 0,0 mm 10,6 km/h (2 Bft) N-NO 20 0 min 10,7 C 26,6 C 25,7 km/h (4 Bft)
21.07.2018 12:00 27,1 C 36 % 1007,8 hPa 0,0 mm 6,1 km/h (2 Bft) NW 315 0 min 10,7 C 27,1 C 22,5 km/h (4 Bft)
21.07.2018 11:45 27,4 C 36 % 1007,7 hPa 0,0 mm 8,1 km/h (2 Bft) N-NW 346 15 min 11,0 C 27,4 C 22,5 km/h (4 Bft)
21.07.2018 11:30 27,2 C 36 % 1007,7 hPa 0,0 mm 7,5 km/h (2 Bft) N 10 15 min 10,8 C 27,2 C 17,7 km/h (3 Bft)
21.07.2018 11:15 26,6 C 38 % 1007,7 hPa 0,0 mm 10,2 km/h (2 Bft) W-NW 290 15 min 11,1 C 26,6 C 17,7 km/h (3 Bft)
21.07.2018 11:00 27,1 C 37 % 1007,6 hPa 0,0 mm 5,2 km/h (1 Bft) N-NO 18 15 min 11,1 C 27,1 C 19,3 km/h (3 Bft)
21.07.2018 10:45 26,6 C 38 % 1007,6 hPa 0,0 mm 1,8 km/h (1 Bft) N-NO 14 15 min 11,1 C 26,6 C 11,3 km/h (2 Bft)
21.07.2018 10:30 26,1 C 40 % 1007,7 hPa 0,0 mm 3,4 km/h (1 Bft) N-NW 344 15 min 11,4 C 26,1 C 12,9 km/h (3 Bft)
21.07.2018 10:15 26,1 C 40 % 1007,8 hPa 0,0 mm 5,5 km/h (1 Bft) N 359 15 min 11,4 C 26,1 C 17,7 km/h (3 Bft)
21.07.2018 10:00 25,5 C 41 % 1007,9 hPa 0,0 mm 4,4 km/h (1 Bft) N-NO 20 15 min 11,3 C 25,5 C 12,9 km/h (3 Bft)
21.07.2018 09:45 25,3 C 41 % 1007,8 hPa 0,0 mm 2,1 km/h (1 Bft) N 3 0 min 11,1 C 25,3 C 9,7 km/h (2 Bft)
21.07.2018 09:30 25,5 C 41 % 1007,8 hPa 0,0 mm 0,3 km/h (0 Bft) W-NW 291 15 min 11,3 C 25,5 C 8,0 km/h (2 Bft)
21.07.2018 09:15 25,1 C 43 % 1007,8 hPa 0,0 mm 1,0 km/h (0 Bft) N 8 15 min 11,6 C 25,1 C 8,0 km/h (2 Bft)
21.07.2018 09:00 24,4 C 44 % 1007,7 hPa 0,0 mm 1,9 km/h (1 Bft) N-NW 327 15 min 11,3 C 24,4 C 9,7 km/h (2 Bft)
21.07.2018 08:45 23,9 C 46 % 1007,7 hPa 0,0 mm 0,1 km/h (0 Bft) O 80 15 min 11,6 C 23,9 C 4,8 km/h (1 Bft)
21.07.2018 08:30 23,4 C 48 % 1007,7 hPa 0,0 mm 0,0 km/h (0 Bft) O-SO 103 15 min 11,8 C 23,4 C 1,6 km/h (1 Bft)
21.07.2018 08:15 22,5 C 50 % 1007,7 hPa 0,0 mm 0,0 km/h (0 Bft) O-SO 107 15 min 11,5 C 22,5 C 0,0 km/h (0 Bft)
21.07.2018 08:00 21,8 C 52 % 1007,8 hPa 0,0 mm 0,0 km/h (0 Bft) O-SO 107 15 min 11,5 C 21,8 C 3,2 km/h (1 Bft)
21.07.2018 07:45 20,9 C 55 % 1007,7 hPa 0,0 mm 0,0 km/h (0 Bft) O-SO 107 2 min 11,5 C 20,9 C 0,0 km/h (0 Bft)
21.07.2018 07:43 20,8 C 55 % 1007,6 hPa 0,0 mm 0,0 km/h (0 Bft) O-SO 107 13 min 11,4 C 20,8 C 1,6 km/h (1 Bft)
21.07.2018 07:30 20,3 C 57 % 1007,6 hPa 0,0 mm 1,2 km/h (1 Bft) O-SO 106 0 min 11,5 C 20,3 C 8,0 km/h (2 Bft)
21.07.2018 07:15 20,0 C 58 % 1007,5 hPa 0,0 mm 0,0 km/h (0 Bft) SO 128 0 min 11,5 C 20,0 C 0,0 km/h (0 Bft)
21.07.2018 07:00 19,3 C 59 % 1007,5 hPa 0,0 mm 0,0 km/h (0 Bft) SO 128 15 min 11,1 C 19,3 C 3,2 km/h (1 Bft)
21.07.2018 06:45 19,0 C 59 % 1007,5 hPa 0,0 mm 0,7 km/h (0 Bft) SO 128 15 min 10,8 C 19,0 C 4,8 km/h (1 Bft)
21.07.2018 06:30 18,7 C 60 % 1007,6 hPa 0,0 mm 0,0 km/h (0 Bft) SO 126 15 min 10,8 C 18,7 C 0,0 km/h (0 Bft)
21.07.2018 06:15 18,5 C 60 % 1007,6 hPa 0,0 mm 0,0 km/h (0 Bft) SO 126 0 min 10,6 C 18,5 C 0,0 km/h (0 Bft)
21.07.2018 06:00 18,4 C 60 % 1007,7 hPa 0,0 mm 0,0 km/h (0 Bft) SO 126 0 min 10,5 C 18,4 C 3,2 km/h (1 Bft)
21.07.2018 05:45 18,6 C 59 % 1007,8 hPa 0,0 mm 0,0 km/h (0 Bft) SO 126 0 min 10,4 C 18,6 C 0,0 km/h (0 Bft)
21.07.2018 05:43 18,6 C 59 % 1007,7 hPa 0,0 mm 0,0 km/h (0 Bft) SO 126 0 min 10,4 C 18,6 C 0,0 km/h (0 Bft)
21.07.2018 05:30 18,7 C 58 % 1007,7 hPa 0,0 mm 0,4 km/h (0 Bft) SO 126 0 min 10,3 C 18,7 C 6,4 km/h (2 Bft)
21.07.2018 05:15 18,8 C 57 % 1007,6 hPa 0,0 mm 0,2 km/h (0 Bft) O-SO 113 0 min 10,1 C 18,8 C 6,4 km/h (2 Bft)
21.07.2018 05:00 18,9 C 57 % 1007,6 hPa 0,0 mm 0,0 km/h (0 Bft) O-SO 109 0 min 10,2 C 18,9 C 0,0 km/h (0 Bft)
_ Min-Zeit 06:00 11:30 06:45 - 05:00 - - - 05:15 06:00 05:00
Minimum _ 18,4 C 36 % 1007,5 hPa - 0,0 km/h (0 Bft) - - - 10,1 C 18,4 C 0,0 km/h (0 Bft)
_ Max-Zeit 11:45 04:00 04:00 05:00 12:15 - - 06:30 18:15 11:45 12:15
Maximum _ 27,6 C 80 % 1010,0 hPa 0,0 mm 10,6 km/h
N-NO (2 Bft)
- - 15 min 15,6 C 27,4 C 25,7 km/h
NW (4 Bft)
Durchschnitt _ 23,2 C 53 % 1008,3 hPa #0,0 mm 3,1 km/h (1 Bft) N-NO - #0 min. 12,8 C 23,2 C 11,1 km/h (2 Bft)